Time;durP1;ratioP1;P1;durP2;ratioP2;P2;SDS_P1;SDS_P2;PMS_P1;PMS_P2;Temp;Humidity;BMP_temperature;BMP_pressure;BME280_temperature;BME280_humidity;BME280_pressure;Samples;Min_cycle;Max_cycle;Signal;HPM_P1;HPM_P2
2023/03/25 00:00:56;;;;;;;15.20;10.02;;;11.70;99.90;;;;;;5095806;28;20027;-78
2023/03/25 00:03:23;;;;;;;16.17;11.02;;;11.70;99.90;;;;;;5097010;28;20035;-78
2023/03/25 00:05:48;;;;;;;17.65;10.55;;;11.70;99.90;;;;;;5095584;28;20102;-78
2023/03/25 00:08:14;;;;;;;14.05;9.85;;;11.60;99.90;;;;;;5097078;28;20057;-78
2023/03/25 00:10:40;;;;;;;15.48;10.32;;;11.60;99.90;;;;;;5097117;28;20028;-78
2023/03/25 00:13:07;;;;;;;17.88;10.70;;;11.50;99.90;;;;;;5095659;28;20126;-79
2023/03/25 00:15:33;;;;;;;16.98;10.50;;;11.50;99.90;;;;;;5095801;28;20024;-78
2023/03/25 00:18:02;;;;;;;15.63;10.48;;;11.50;99.90;;;;;;5095806;28;20149;-78
2023/03/25 00:20:27;;;;;;;20.42;11.93;;;11.50;99.90;;;;;;5097618;28;20024;-78
2023/03/25 00:22:53;;;;;;;19.65;12.27;;;11.50;99.90;;;;;;5115924;28;20034;-78
2023/03/25 00:25:19;;;;;;;15.65;10.95;;;11.40;99.90;;;;;;5117277;28;20020;-78
2023/03/25 00:27:47;;;;;;;17.25;11.45;;;11.40;99.90;;;;;;5115928;28;20516;-79
2023/03/25 00:30:17;;;;;;;14.75;10.68;;;11.40;99.90;;;;;;5115773;28;20019;-79
2023/03/25 00:32:44;;;;;;;18.88;11.30;;;11.30;99.90;;;;;;5115766;28;20027;-78
2023/03/25 00:35:12;;;;;;;21.05;12.43;;;11.30;99.90;;;;;;5115853;28;20016;-78
2023/03/25 00:37:38;;;;;;;17.90;11.02;;;11.20;99.90;;;;;;5116940;28;20024;-78
2023/03/25 00:40:04;;;;;;;16.27;11.15;;;11.20;99.90;;;;;;5117051;28;20043;-78
2023/03/25 00:42:30;;;;;;;13.30;10.15;;;11.20;99.90;;;;;;5114986;28;20027;-79
2023/03/25 00:44:56;;;;;;;14.93;10.05;;;11.20;99.90;;;;;;5115722;28;20016;-78
2023/03/25 00:47:21;;;;;;;14.15;10.65;;;11.10;99.90;;;;;;5115251;28;20043;-78
2023/03/25 00:49:48;;;;;;;17.45;11.15;;;11.10;99.90;;;;;;5115764;28;20027;-78
2023/03/25 00:52:14;;;;;;;17.73;11.77;;;11.00;99.90;;;;;;5116549;28;20043;-78
2023/03/25 00:54:40;;;;;;;14.88;11.05;;;11.00;99.90;;;;;;5116710;28;20154;-78
2023/03/25 00:57:06;;;;;;;18.08;10.98;;;11.00;99.90;;;;;;5115380;28;20126;-78
2023/03/25 00:59:32;;;;;;;15.60;12.07;;;11.00;99.90;;;;;;5115335;28;20051;-78
2023/03/25 01:01:57;;;;;;;20.02;13.85;;;10.90;99.90;;;;;;5115355;28;20020;-79
2023/03/25 01:04:23;;;;;;;22.02;15.43;;;10.90;99.90;;;;;;5116189;28;20023;-78
2023/03/25 01:06:52;;;;;;;23.27;16.50;;;10.80;99.90;;;;;;5115243;28;20023;-79
2023/03/25 01:09:19;;;;;;;21.30;14.70;;;10.80;99.90;;;;;;5116446;28;20024;-78
2023/03/25 01:11:46;;;;;;;18.58;14.52;;;10.80;99.90;;;;;;5115175;28;20518;-78
2023/03/25 01:14:18;;;;;;;18.92;13.38;;;10.80;99.90;;;;;;5116298;28;20450;-79
2023/03/25 01:16:45;;;;;;;21.70;14.35;;;10.80;99.90;;;;;;5115091;28;20043;-79
2023/03/25 01:19:12;;;;;;;25.95;16.27;;;10.70;99.90;;;;;;5114929;28;20015;-78
2023/03/25 01:21:38;;;;;;;21.38;15.10;;;10.70;99.90;;;;;;5114685;28;20011;-78
2023/03/25 01:24:05;;;;;;;23.23;16.42;;;10.70;99.90;;;;;;5114759;28;20032;-79
2023/03/25 01:26:31;;;;;;;20.25;15.15;;;10.70;99.90;;;;;;5116177;28;20484;-78
2023/03/25 01:28:57;;;;;;;25.08;17.02;;;10.70;99.90;;;;;;5114802;28;20020;-78
2023/03/25 01:31:24;;;;;;;22.45;16.40;;;10.70;99.90;;;;;;5116089;28;20122;-78
2023/03/25 01:33:50;;;;;;;20.45;14.38;;;10.60;99.90;;;;;;5114684;28;20012;-78
2023/03/25 01:36:16;;;;;;;22.85;15.27;;;10.50;99.90;;;;;;5115882;28;20380;-78
2023/03/25 01:38:41;;;;;;;22.13;14.93;;;10.50;99.90;;;;;;5115802;28;20145;-78
2023/03/25 01:41:08;;;;;;;23.58;15.27;;;10.40;99.90;;;;;;5114246;28;20164;-78
2023/03/25 01:43:34;;;;;;;20.92;14.65;;;10.40;99.90;;;;;;5114505;28;20020;-78
2023/03/25 01:46:00;;;;;;;24.52;14.70;;;10.40;99.90;;;;;;5115874;27;20389;-78
2023/03/25 01:48:40;;;;;;;17.30;12.90;;;10.30;99.90;;;;;;5115374;28;20040;-78
2023/03/25 01:51:15;;;;;;;17.77;13.10;;;10.30;99.90;;;;;;5115604;28;20020;-79
2023/03/25 01:53:41;;;;;;;18.13;13.48;;;10.30;99.90;;;;;;5115580;28;20072;-78
2023/03/25 01:56:09;;;;;;;18.85;12.48;;;10.20;99.90;;;;;;5115634;28;20032;-78
2023/03/25 01:58:35;;;;;;;17.67;12.85;;;10.20;99.90;;;;;;5115513;28;20023;-78
2023/03/25 02:01:02;;;;;;;18.55;13.35;;;10.20;99.90;;;;;;5113630;28;20488;-79
2023/03/25 02:03:30;;;;;;;17.75;12.00;;;10.20;99.90;;;;;;5115355;28;20486;-78
2023/03/25 02:06:19;;;;;;;19.80;12.15;;;10.20;99.90;;;;;;5114072;28;20016;-78
2023/03/25 02:08:45;;;;;;;18.50;12.13;;;10.20;99.90;;;;;;5115520;27;20106;-78
2023/03/25 02:11:11;;;;;;;16.00;11.95;;;10.20;99.90;;;;;;5113885;28;20476;-78
2023/03/25 02:13:39;;;;;;;17.20;11.73;;;10.20;99.90;;;;;;5115026;28;20024;-78
2023/03/25 02:16:44;;;;;;;16.33;12.70;;;10.20;99.90;;;;;;5113156;28;20027;-79
2023/03/25 02:19:19;;;;;;;16.02;11.98;;;10.20;99.90;;;;;;5113863;28;20092;-78
2023/03/25 02:21:53;;;;;;;17.67;12.40;;;10.20;99.90;;;;;;5108988;28;20103;-78
2023/03/25 02:24:42;;;;;;;18.13;11.85;;;10.20;99.90;;;;;;5094679;28;20064;-78
2023/03/25 02:27:40;;;;;;;17.38;11.85;;;10.20;99.90;;;;;;5093369;28;20136;-79
2023/03/25 02:30:25;;;;;;;16.75;11.43;;;10.10;99.90;;;;;;5093529;28;20030;-79
2023/03/25 02:33:10;;;;;;;17.45;11.40;;;10.10;99.90;;;;;;5094313;28;20032;-78
2023/03/25 02:36:04;;;;;;;13.45;10.70;;;10.10;99.90;;;;;;5092984;28;20132;-78
2023/03/25 02:38:57;;;;;;;14.73;10.90;;;10.10;99.90;;;;;;5090660;28;20040;-78
2023/03/25 02:41:29;;;;;;;18.23;10.95;;;10.10;99.90;;;;;;5095495;28;20064;-79
2023/03/25 02:44:09;;;;;;;14.10;10.40;;;10.00;99.90;;;;;;5113324;28;20016;-78
2023/03/25 02:46:37;;;;;;;15.60;10.52;;;10.00;99.90;;;;;;5114704;28;20477;-78
2023/03/25 02:49:09;;;;;;;15.68;10.88;;;9.90;99.90;;;;;;5113280;28;20564;-78
2023/03/25 02:51:52;;;;;;;15.47;10.77;;;9.90;99.90;;;;;;5114351;28;20032;-78
2023/03/25 02:54:20;;;;;;;17.48;10.95;;;9.90;99.90;;;;;;5113463;28;20028;-78
2023/03/25 02:56:49;;;;;;;13.60;10.48;;;9.90;99.90;;;;;;5114420;28;20027;-78
2023/03/25 02:59:17;;;;;;;14.23;10.15;;;9.90;99.90;;;;;;5113021;28;20393;-78
2023/03/25 03:01:44;;;;;;;12.18;9.07;;;9.90;99.90;;;;;;5109097;28;20027;-78
2023/03/25 03:04:10;;;;;;;15.20;9.95;;;9.80;99.90;;;;;;5093811;28;20027;-78
2023/03/25 03:06:40;;;;;;;13.30;8.90;;;9.80;99.90;;;;;;5092747;28;20016;-78
2023/03/25 03:09:16;;;;;;;12.15;8.52;;;9.80;99.90;;;;;;5092574;28;20114;-78
2023/03/25 03:12:00;;;;;;;12.10;8.40;;;9.70;99.90;;;;;;5093783;28;20036;-78
2023/03/25 03:14:47;;;;;;;10.20;7.97;;;9.70;99.90;;;;;;5092503;28;20026;-79
2023/03/25 03:17:17;;;;;;;11.55;8.23;;;9.70;99.90;;;;;;5092475;28;20115;-78
2023/03/25 03:19:50;;;;;;;8.52;7.38;;;9.70;99.90;;;;;;5092460;28;20017;-78
2023/03/25 03:22:41;;;;;;;13.10;8.70;;;9.70;99.90;;;;;;5092178;28;20035;-78
2023/03/25 03:25:19;;;;;;;11.15;7.47;;;9.70;99.90;;;;;;5092226;28;20027;-77
2023/03/25 03:28:00;;;;;;;10.18;6.90;;;9.70;99.90;;;;;;5092165;28;20035;-78
2023/03/25 03:30:45;;;;;;;11.23;6.90;;;9.60;99.90;;;;;;5093615;28;20373;-78
2023/03/25 03:33:26;;;;;;;11.35;7.43;;;9.60;99.90;;;;;;5092270;28;20405;-78
2023/03/25 03:36:00;;;;;;;10.80;6.78;;;9.60;99.90;;;;;;5093451;28;20427;-78
2023/03/25 03:38:34;;;;;;;12.25;7.60;;;9.50;99.90;;;;;;5093527;28;20107;-78
2023/03/25 03:41:06;;;;;;;10.95;7.47;;;9.50;99.90;;;;;;5092403;28;20020;-78
2023/03/25 03:43:52;;;;;;;10.85;7.85;;;9.50;99.90;;;;;;5092001;28;20393;-78
2023/03/25 03:46:32;;;;;;;10.57;7.40;;;9.40;99.90;;;;;;5093357;28;20027;-78
2023/03/25 03:49:01;;;;;;;10.77;7.40;;;9.40;99.90;;;;;;5092018;28;20102;-78
2023/03/25 03:51:37;;;;;;;8.75;6.10;;;9.40;99.90;;;;;;5093314;28;20032;-79
2023/03/25 03:54:17;;;;;;;7.05;5.72;;;9.30;99.90;;;;;;5092083;28;20028;-79
2023/03/25 03:57:00;;;;;;;10.35;6.43;;;9.30;99.90;;;;;;5093443;28;20077;-79
2023/03/25 03:59:58;;;;;;;7.90;6.00;;;9.30;99.90;;;;;;5093290;28;20021;-78
2023/03/25 04:02:41;;;;;;;10.23;6.63;;;9.30;99.90;;;;;;5085066;28;20425;-78
2023/03/25 04:05:10;;;;;;;7.18;4.80;;;9.30;99.90;;;;;;5093430;28;20056;-78
2023/03/25 04:07:42;;;;;;;8.82;5.70;;;9.30;99.90;;;;;;5093160;28;20035;-78
2023/03/25 04:10:13;;;;;;;7.05;5.07;;;9.20;99.90;;;;;;5091982;28;20474;-78
2023/03/25 04:12:45;;;;;;;6.93;4.88;;;9.20;99.90;;;;;;5093190;28;20043;-79
2023/03/25 04:15:12;;;;;;;7.90;5.95;;;9.20;99.90;;;;;;5092037;28;20016;-79
2023/03/25 04:17:38;;;;;;;7.05;5.10;;;9.20;99.90;;;;;;5091942;28;20032;-78
2023/03/25 04:20:10;;;;;;;9.00;5.50;;;9.10;99.90;;;;;;5091900;28;20561;-78
2023/03/25 04:22:36;;;;;;;6.78;5.22;;;9.20;99.90;;;;;;5094249;28;20070;-78
2023/03/25 04:25:06;;;;;;;6.50;4.82;;;9.20;99.90;;;;;;5113469;28;20030;-78
2023/03/25 04:27:32;;;;;;;6.07;5.05;;;9.20;99.90;;;;;;5113439;28;20024;-79
2023/03/25 04:30:00;;;;;;;7.70;5.13;;;9.20;99.90;;;;;;5112105;28;20050;-78
2023/03/25 04:32:26;;;;;;;9.15;5.40;;;9.20;99.90;;;;;;5111999;28;20045;-78
2023/03/25 04:34:56;;;;;;;7.85;5.10;;;9.20;99.90;;;;;;5112149;28;20111;-79
2023/03/25 04:37:24;;;;;;;6.80;5.13;;;9.20;99.90;;;;;;5112228;28;20027;-78
2023/03/25 04:39:52;;;;;;;7.88;5.28;;;9.10;99.90;;;;;;5113351;28;20024;-78
2023/03/25 04:42:18;;;;;;;7.18;5.05;;;9.00;99.90;;;;;;5116994;28;20485;-78
2023/03/25 04:44:44;;;;;;;8.32;5.20;;;9.00;99.90;;;;;;5115634;28;20026;-78
2023/03/25 04:47:13;;;;;;;8.93;5.00;;;9.10;99.90;;;;;;5115404;28;20027;-78
2023/03/25 04:49:43;;;;;;;6.97;5.03;;;9.10;99.90;;;;;;5115585;28;20023;-78
2023/03/25 04:52:10;;;;;;;8.18;5.35;;;9.10;99.90;;;;;;5116789;28;20392;-78
2023/03/25 04:54:37;;;;;;;8.80;5.55;;;9.10;99.90;;;;;;5115449;28;20016;-78
2023/03/25 04:57:03;;;;;;;6.68;5.13;;;9.00;99.90;;;;;;5116755;28;20019;-78
2023/03/25 04:59:29;;;;;;;6.57;4.80;;;9.00;99.90;;;;;;5115409;28;20020;-78
2023/03/25 05:01:55;;;;;;;9.30;5.03;;;9.00;99.90;;;;;;5116607;28;20016;-79
2023/03/25 05:04:23;;;;;;;5.75;4.57;;;9.00;99.90;;;;;;5116376;27;20490;-79
2023/03/25 05:06:50;;;;;;;6.47;4.90;;;9.00;99.90;;;;;;5116392;28;20016;-78
2023/03/25 05:09:18;;;;;;;8.48;5.40;;;9.00;99.90;;;;;;5115192;28;20509;-78
2023/03/25 05:11:45;;;;;;;7.88;5.20;;;8.90;99.90;;;;;;5116218;28;20078;-78
2023/03/25 05:14:13;;;;;;;5.32;4.82;;;8.90;99.90;;;;;;5116402;28;20043;-78
2023/03/25 05:16:39;;;;;;;7.70;5.20;;;8.90;99.90;;;;;;5116330;28;20062;-78
2023/03/25 05:19:05;;;;;;;7.90;4.70;;;8.80;99.90;;;;;;5115074;28;20019;-78
2023/03/25 05:21:36;;;;;;;6.22;4.50;;;8.90;99.90;;;;;;5116372;28;20096;-78
2023/03/25 05:24:09;;;;;;;7.38;5.22;;;8.90;99.90;;;;;;5101536;28;20501;-78
2023/03/25 05:26:35;;;;;;;;;;;8.90;99.90;;;;;;5094761;28;20024;-78
2023/03/25 05:29:05;;;;;;;7.40;5.22;;;8.90;99.90;;;;;;5094459;28;19987;-78
2023/03/25 05:31:31;;;;;;;10.45;5.30;;;8.80;99.90;;;;;;5094363;28;20060;-78
2023/03/25 05:33:57;;;;;;;8.52;5.28;;;8.90;99.90;;;;;;5095514;28;20035;-78
2023/03/25 05:36:26;;;;;;;8.10;6.10;;;8.80;99.90;;;;;;5094322;28;20028;-78
2023/03/25 05:38:55;;;;;;;11.98;6.47;;;8.80;99.90;;;;;;5095470;28;20027;-78
2023/03/25 05:41:31;;;;;;;13.85;6.78;;;8.80;99.90;;;;;;5094199;28;20028;-78
2023/03/25 05:43:59;;;;;;;12.82;7.43;;;8.80;99.90;;;;;;5095407;28;20016;-78
2023/03/25 05:46:25;;;;;;;11.50;6.25;;;8.90;99.90;;;;;;5095373;28;20021;-78
2023/03/25 05:48:51;;;;;;;9.05;7.22;;;8.90;99.90;;;;;;5093740;28;20080;-79
2023/03/25 05:51:20;;;;;;;9.43;6.13;;;8.90;99.90;;;;;;5094070;28;20127;-78
2023/03/25 05:53:50;;;;;;;8.57;5.97;;;8.90;99.90;;;;;;5095246;28;20032;-79
2023/03/25 05:56:18;;;;;;;8.95;6.25;;;8.90;99.90;;;;;;5095226;28;20016;-78
2023/03/25 05:58:44;;;;;;;9.32;6.00;;;9.00;99.90;;;;;;5093833;28;20028;-78
2023/03/25 06:01:12;;;;;;;10.13;5.93;;;9.00;99.90;;;;;;5093818;28;20020;-78
2023/03/25 06:03:38;;;;;;;10.15;5.43;;;9.00;99.90;;;;;;5093078;28;20081;-78
2023/03/25 06:06:12;;;;;;;9.25;6.35;;;9.00;99.90;;;;;;5093482;28;20073;-78
2023/03/25 06:08:40;;;;;;;7.55;5.50;;;9.00;99.90;;;;;;5093619;28;20100;-78
2023/03/25 06:11:08;;;;;;;8.93;5.82;;;9.10;99.90;;;;;;5093459;28;20050;-78
2023/03/25 06:13:36;;;;;;;7.53;5.47;;;9.10;99.90;;;;;;5093282;28;20075;-78
2023/03/25 06:16:04;;;;;;;8.60;6.13;;;9.10;99.90;;;;;;5094816;28;20020;-79
2023/03/25 06:18:31;;;;;;;10.73;6.32;;;9.10;99.90;;;;;;5093417;28;20051;-78
2023/03/25 06:20:56;;;;;;;10.00;6.68;;;9.20;99.90;;;;;;5093751;28;20021;-78
2023/03/25 06:23:25;;;;;;;9.40;6.38;;;9.20;99.90;;;;;;5097577;28;20523;-78
2023/03/25 06:25:51;;;;;;;12.10;7.18;;;9.20;99.90;;;;;;5114957;28;20020;-78
2023/03/25 06:28:17;;;;;;;9.50;6.53;;;9.20;99.90;;;;;;5113474;28;20016;-78
2023/03/25 06:30:44;;;;;;;8.52;5.70;;;9.30;99.90;;;;;;5114967;28;20389;-78
2023/03/25 06:33:10;;;;;;;9.30;5.60;;;9.30;99.90;;;;;;5114740;28;20441;-78
2023/03/25 06:35:36;;;;;;;7.03;5.60;;;9.30;99.90;;;;;;5113389;28;20024;-78
2023/03/25 06:38:02;;;;;;;9.07;5.75;;;9.40;99.90;;;;;;5113347;28;20030;-78
2023/03/25 06:40:28;;;;;;;9.55;6.40;;;9.40;99.90;;;;;;5113365;28;20023;-78
2023/03/25 06:42:54;;;;;;;8.25;5.45;;;9.40;99.90;;;;;;5098422;28;20180;-78
2023/03/25 06:45:19;;;;;;;10.55;6.97;;;9.40;99.90;;;;;;5094183;28;20032;-78
2023/03/25 06:47:45;;;;;;;11.18;8.00;;;9.50;99.90;;;;;;5092389;28;20044;-78
2023/03/25 06:50:11;;;;;;;15.85;7.50;;;9.60;99.90;;;;;;5092953;28;20031;-78
2023/03/25 06:52:36;;;;;;;11.93;7.57;;;9.70;99.90;;;;;;5092820;28;20085;-78
2023/03/25 06:55:03;;;;;;;14.32;8.05;;;9.70;99.90;;;;;;5092824;28;20020;-78
2023/03/25 06:57:29;;;;;;;10.88;7.63;;;9.80;99.90;;;;;;5095893;28;20017;-78
2023/03/25 06:59:54;;;;;;;11.15;7.88;;;9.90;99.90;;;;;;5072298;28;20624;-78
2023/03/25 07:02:20;;;;;;;13.13;8.55;;;9.90;99.90;;;;;;5084054;28;20065;-78
2023/03/25 07:04:45;;;;;;;14.10;9.02;;;10.00;99.90;;;;;;5090729;28;20020;-78
2023/03/25 07:07:11;;;;;;;14.18;8.95;;;10.10;99.90;;;;;;5092575;27;20441;-78
2023/03/25 07:09:37;;;;;;;15.52;9.25;;;10.20;99.90;;;;;;5090848;28;20074;-79
2023/03/25 07:12:02;;;;;;;14.88;9.63;;;10.30;99.90;;;;;;5091969;28;20131;-79
2023/03/25 07:14:28;;;;;;;11.57;8.18;;;10.30;99.90;;;;;;5091330;28;20016;-79
2023/03/25 07:16:54;;;;;;;11.65;8.25;;;10.30;99.90;;;;;;5092122;28;20036;-79
2023/03/25 07:19:19;;;;;;;13.45;7.55;;;10.40;99.90;;;;;;5092572;28;20020;-78
2023/03/25 07:21:45;;;;;;;11.88;7.68;;;10.50;99.90;;;;;;5090679;28;20422;-78
2023/03/25 07:24:11;;;;;;;12.00;7.63;;;10.50;99.90;;;;;;5091154;28;20385;-79
2023/03/25 07:26:36;;;;;;;12.77;7.25;;;10.50;99.90;;;;;;5091527;28;20486;-79
2023/03/25 07:29:02;;;;;;;12.70;6.82;;;10.60;99.90;;;;;;5091048;28;20024;-78
2023/03/25 07:31:29;;;;;;;13.07;7.18;;;10.70;99.90;;;;;;5091005;28;20024;-78
2023/03/25 07:33:54;;;;;;;7.00;5.60;;;10.70;99.90;;;;;;5090585;28;20127;-78
2023/03/25 07:36:22;;;;;;;9.75;6.20;;;10.70;99.90;;;;;;5092141;28;20107;-79
2023/03/25 07:38:48;;;;;;;8.82;5.68;;;10.70;99.90;;;;;;5090781;28;20020;-79
2023/03/25 07:41:13;;;;;;;7.30;5.75;;;10.80;99.90;;;;;;5091773;28;20488;-78
2023/03/25 07:43:39;;;;;;;10.63;6.53;;;10.90;99.90;;;;;;5090607;28;20173;-79
2023/03/25 07:46:05;;;;;;;8.15;5.88;;;10.90;99.90;;;;;;5092093;28;20024;-79
2023/03/25 07:48:32;;;;;;;8.95;6.18;;;11.00;99.90;;;;;;5090921;28;20044;-79
2023/03/25 07:50:57;;;;;;;7.80;5.30;;;11.00;99.90;;;;;;5087597;28;20024;-80
2023/03/25 07:53:23;;;;;;;8.57;5.88;;;11.10;99.90;;;;;;5107452;28;20055;-79
2023/03/25 07:55:49;;;;;;;109.93;45.80;;;11.20;99.90;;;;;;5090091;28;20039;-79
2023/03/25 07:58:18;;;;;;;473.60;162.52;;;11.30;99.90;;;;;;5091706;28;20039;-79
2023/03/25 08:00:45;;;;;;;311.08;103.00;;;11.50;99.90;;;;;;5104996;28;20379;-79
2023/03/25 08:03:12;;;;;;;114.07;45.63;;;11.80;99.90;;;;;;5093267;28;20027;-78
2023/03/25 08:05:44;;;;;;;40.88;20.77;;;12.10;99.90;;;;;;5102942;28;20017;-79
2023/03/25 08:08:09;;;;;;;21.13;12.40;;;12.30;90.90;;;;;;5097108;28;20035;-79
2023/03/25 08:10:35;;;;;;;11.98;6.03;;;12.40;82.70;;;;;;5081746;28;20108;-79
2023/03/25 08:13:00;;;;;;;25.00;14.65;;;12.50;81.70;;;;;;5101416;28;20048;-78
2023/03/25 08:15:26;;;;;;;24.58;15.48;;;12.60;83.20;;;;;;5104897;28;20024;-79
2023/03/25 08:17:52;;;;;;;9.95;8.07;;;12.60;80.30;;;;;;5104691;27;20032;-79
2023/03/25 08:20:17;;;;;;;9.07;6.95;;;12.90;81.00;;;;;;5105058;28;20024;-80
2023/03/25 08:22:44;;;;;;;8.02;5.75;;;12.90;81.40;;;;;;5115761;28;20022;-79
2023/03/25 08:25:10;;;;;;;11.60;6.15;;;12.80;79.60;;;;;;5117065;28;20022;-79
2023/03/25 08:27:36;;;;;;;8.93;6.32;;;12.70;77.70;;;;;;5115472;28;20016;-79
2023/03/25 08:30:03;;;;;;;10.32;5.88;;;12.60;79.30;;;;;;5116944;28;20499;-79
2023/03/25 08:32:29;;;;;;;39.30;19.02;;;12.70;79.30;;;;;;5116636;28;20036;-79
2023/03/25 08:34:55;;;;;;;177.48;74.75;;;12.80;78.60;;;;;;5114793;28;20012;-79
2023/03/25 08:37:22;;;;;;;106.43;45.58;;;12.90;78.40;;;;;;5115171;28;20110;-79
2023/03/25 08:39:49;;;;;;;17.63;11.02;;;12.90;77.40;;;;;;5116929;28;20117;-79
2023/03/25 08:42:16;;;;;;;17.25;9.70;;;13.00;77.30;;;;;;5116491;28;20020;-79
2023/03/25 08:44:42;;;;;;;66.78;31.13;;;13.20;75.20;;;;;;5116860;28;20103;-79
2023/03/25 08:47:08;;;;;;;49.53;21.95;;;13.10;73.80;;;;;;5116300;28;20102;-80
2023/03/25 08:49:33;;;;;;;37.55;19.13;;;13.20;73.80;;;;;;5115108;28;20024;-79
2023/03/25 08:52:00;;;;;;;54.88;25.65;;;13.40;74.30;;;;;;5116412;28;20111;-79
2023/03/25 08:54:27;;;;;;;35.95;17.92;;;13.40;74.40;;;;;;5116389;28;20560;-79
2023/03/25 08:56:52;;;;;;;30.60;13.80;;;13.40;73.50;;;;;;5115086;28;20080;-79
2023/03/25 08:59:19;;;;;;;48.40;22.80;;;13.50;72.50;;;;;;5116099;27;20023;-79
2023/03/25 09:01:45;;;;;;;18.13;10.45;;;13.40;72.70;;;;;;5115213;28;20106;-79
2023/03/25 09:04:11;;;;;;;16.17;10.00;;;13.30;72.70;;;;;;5114884;28;20119;-79
2023/03/25 09:06:38;;;;;;;18.13;10.05;;;13.10;71.80;;;;;;5116436;28;20023;-79
2023/03/25 09:09:04;;;;;;;43.03;21.15;;;13.20;70.90;;;;;;5115985;28;20147;-79
2023/03/25 09:11:33;;;;;;;25.65;13.85;;;13.20;70.80;;;;;;5116304;27;20030;-79
2023/03/25 09:14:02;;;;;;;33.03;15.82;;;13.20;70.20;;;;;;5115805;28;20062;-79
2023/03/25 09:16:29;;;;;;;19.45;10.55;;;13.20;69.90;;;;;;5114829;28;20110;-79
2023/03/25 09:18:54;;;;;;;25.98;14.55;;;13.30;70.30;;;;;;5115715;28;20039;-79
2023/03/25 09:21:20;;;;;;;16.05;8.20;;;13.50;69.80;;;;;;5114923;28;20120;-79
2023/03/25 09:23:46;;;;;;;12.75;8.85;;;13.50;68.00;;;;;;5115742;28;20031;-79
2023/03/25 09:26:11;;;;;;;17.55;10.25;;;13.60;68.10;;;;;;5115506;28;20024;-79
2023/03/25 09:28:37;;;;;;;17.38;7.57;;;13.60;66.60;;;;;;5115955;28;20413;-79
2023/03/25 09:31:03;;;;;;;11.00;5.70;;;13.50;67.90;;;;;;5115970;28;20032;-79
2023/03/25 09:33:28;;;;;;;11.23;6.18;;;13.50;67.70;;;;;;5115421;28;20043;-79
2023/03/25 09:35:54;;;;;;;9.32;6.28;;;13.60;67.60;;;;;;5115730;28;20077;-79
2023/03/25 09:38:19;;;;;;;10.60;6.15;;;13.70;67.60;;;;;;5115365;28;20019;-79
2023/03/25 09:40:45;;;;;;;8.35;4.70;;;13.70;68.60;;;;;;5114401;28;20022;-79
2023/03/25 09:43:23;;;;;;;8.30;5.43;;;13.70;67.90;;;;;;5114002;28;20020;-79
2023/03/25 09:45:49;;;;;;;13.98;7.22;;;13.90;67.80;;;;;;5115832;28;20095;-79
2023/03/25 09:48:24;;;;;;;7.75;4.85;;;14.10;66.60;;;;;;5113671;28;20465;-79
2023/03/25 09:50:49;;;;;;;10.43;6.03;;;14.30;66.20;;;;;;5115581;28;20028;-79
2023/03/25 09:53:37;;;;;;;32.03;10.52;;;14.60;64.70;;;;;;5115115;28;20054;-79
2023/03/25 09:56:09;;;;;;;8.95;4.80;;;14.60;62.40;;;;;;5113950;28;20027;-79
2023/03/25 09:58:44;;;;;;;10.27;5.95;;;14.70;60.90;;;;;;5115014;28;20023;-79
2023/03/25 10:01:31;;;;;;;10.50;5.45;;;14.80;61.40;;;;;;5115295;28;20023;-80
2023/03/25 10:04:16;;;;;;;7.50;5.30;;;14.60;59.80;;;;;;5113390;28;20031;-79
2023/03/25 10:06:50;;;;;;;8.55;4.95;;;14.40;61.00;;;;;;5113884;28;20015;-79
2023/03/25 10:09:16;;;;;;;10.10;4.72;;;14.30;60.60;;;;;;5114314;28;20030;-79
2023/03/25 10:12:06;;;;;;;9.50;4.68;;;14.40;60.10;;;;;;5113939;28;20545;-79
2023/03/25 10:14:49;;;;;;;12.15;5.45;;;14.30;59.70;;;;;;5113727;28;20035;-79
2023/03/25 10:17:36;;;;;;;9.98;4.60;;;14.70;61.60;;;;;;5115218;28;20103;-79
2023/03/25 10:20:29;;;;;;;8.52;4.60;;;14.80;60.10;;;;;;5115196;28;20015;-79
2023/03/25 10:23:20;;;;;;;10.02;3.53;;;14.80;59.70;;;;;;5105973;28;20392;-79
2023/03/25 10:25:52;;;;;;;5.75;3.35;;;14.60;58.70;;;;;;5094683;28;20024;-79
2023/03/25 10:28:28;;;;;;;10.70;3.47;;;14.40;58.40;;;;;;5093225;28;20450;-79
2023/03/25 10:30:55;;;;;;;7.03;3.65;;;14.50;59.70;;;;;;5094643;28;20036;-79
2023/03/25 10:33:34;;;;;;;5.47;3.33;;;14.60;58.60;;;;;;5094298;28;20052;-79
2023/03/25 10:36:02;;;;;;;21.63;8.38;;;14.80;56.70;;;;;;5093200;28;20432;-79
2023/03/25 10:38:30;;;;;;;14.27;7.10;;;15.10;57.70;;;;;;5092827;28;20042;-79
2023/03/25 10:41:29;;;;;;;11.70;5.63;;;15.40;56.70;;;;;;5093259;28;20465;-79
2023/03/25 10:43:55;;;;;;;11.10;5.78;;;15.30;55.80;;;;;;5092962;28;20073;-79
2023/03/25 10:46:26;;;;;;;6.60;4.03;;;15.10;55.90;;;;;;5094312;28;20028;-79
2023/03/25 10:48:52;;;;;;;6.60;3.88;;;14.90;57.10;;;;;;5092982;28;20485;-79
2023/03/25 10:51:25;;;;;;;4.20;2.33;;;14.70;58.20;;;;;;5094271;28;20069;-79
2023/03/25 10:53:51;;;;;;;4.70;2.60;;;14.60;57.00;;;;;;5093030;28;20024;-79
2023/03/25 10:56:24;;;;;;;2.65;2.30;;;14.40;56.90;;;;;;5094189;28;20035;-79
2023/03/25 10:58:53;;;;;;;4.03;3.13;;;14.10;57.60;;;;;;5092969;28;20023;-79
2023/03/25 11:01:27;;;;;;;5.38;2.58;;;13.70;59.70;;;;;;5092675;28;20028;-79
2023/03/25 11:03:53;;;;;;;3.15;2.55;;;13.20;65.40;;;;;;5092679;28;20503;-79
2023/03/25 11:06:32;;;;;;;4.95;2.63;;;13.00;68.30;;;;;;5093824;28;20368;-79
2023/03/25 11:09:14;;;;;;;3.83;2.40;;;12.90;71.00;;;;;;5093135;28;20047;-79
2023/03/25 11:11:41;;;;;;;4.40;2.63;;;12.70;72.50;;;;;;5092870;28;20031;-79
2023/03/25 11:14:07;;;;;;;5.03;2.50;;;12.50;76.00;;;;;;5093926;28;20439;-79
2023/03/25 11:16:39;;;;;;;2.90;2.60;;;12.00;76.50;;;;;;5093928;28;20496;-79
2023/03/25 11:19:04;;;;;;;5.32;2.72;;;11.70;83.70;;;;;;5093859;28;20103;-79
2023/03/25 11:21:35;;;;;;;4.10;2.45;;;11.50;88.80;;;;;;5092542;28;20051;-79
2023/03/25 11:24:04;;;;;;;5.13;2.25;;;11.40;92.50;;;;;;5092534;28;20534;-79
2023/03/25 11:26:39;;;;;;;6.13;2.88;;;11.40;94.90;;;;;;5092337;28;20118;-79
2023/03/25 11:29:11;;;;;;;5.72;3.15;;;11.30;99.90;;;;;;5092412;28;20031;-79
2023/03/25 11:31:37;;;;;;;6.65;3.92;;;10.90;99.90;;;;;;5092326;28;20027;-79
2023/03/25 11:34:18;;;;;;;5.38;4.03;;;10.60;99.90;;;;;;5093654;28;20024;-79
2023/03/25 11:36:47;;;;;;;6.68;3.80;;;10.40;99.90;;;;;;5093591;28;20032;-79
2023/03/25 11:39:13;;;;;;;5.82;4.25;;;10.40;99.90;;;;;;5092294;28;20020;-79
2023/03/25 11:41:39;;;;;;;6.00;3.00;;;10.40;99.90;;;;;;5093543;28;20078;-79
2023/03/25 11:44:06;;;;;;;5.38;3.47;;;10.40;99.90;;;;;;5092181;28;20056;-79
2023/03/25 11:46:34;;;;;;;5.45;3.42;;;10.70;99.90;;;;;;5092344;28;20066;-79
2023/03/25 11:49:11;;;;;;;5.82;3.13;;;10.90;99.90;;;;;;5093468;28;20056;-79
2023/03/25 11:51:36;;;;;;;5.93;3.42;;;11.20;99.90;;;;;;5097697;28;20022;-79
2023/03/25 11:54:07;;;;;;;7.75;4.10;;;11.60;99.90;;;;;;5096382;28;20111;-79
2023/03/25 11:56:36;;;;;;;5.90;2.63;;;12.00;99.90;;;;;;5096327;28;20028;-79
2023/03/25 11:59:06;;;;;;;4.90;2.40;;;12.30;99.90;;;;;;5096249;28;20107;-79
2023/03/25 12:01:45;;;;;;;7.32;1.90;;;12.60;96.30;;;;;;5097563;28;20020;-79
2023/03/25 12:04:21;;;;;;;2.60;1.52;;;12.90;84.30;;;;;;5108504;28;20015;-79
2023/03/25 12:07:07;;;;;;;3.55;1.83;;;13.10;84.40;;;;;;5116458;28;20035;-79
2023/03/25 12:09:33;;;;;;;1.40;1.30;;;13.20;76.80;;;;;;5117829;28;20426;-79
2023/03/25 12:12:06;;;;;;;3.17;1.55;;;13.40;74.50;;;;;;5116348;28;20024;-79
2023/03/25 12:14:47;;;;;;;2.35;1.80;;;13.60;73.90;;;;;;5116519;28;20039;-79
2023/03/25 12:17:39;;;;;;;3.83;2.50;;;13.70;71.10;;;;;;5116291;28;20020;-79
2023/03/25 12:20:17;;;;;;;2.13;1.92;;;13.90;71.80;;;;;;5117584;28;20487;-79
2023/03/25 12:23:02;;;;;;;2.42;1.50;;;14.00;73.50;;;;;;5117631;28;20028;-79
2023/03/25 12:25:33;;;;;;;2.97;1.88;;;14.00;70.70;;;;;;5115969;28;20020;-80
2023/03/25 12:28:17;;;;;;;3.45;2.25;;;13.90;70.60;;;;;;5116082;28;20072;-79
2023/03/25 12:30:54;;;;;;;3.20;2.90;;;13.90;72.00;;;;;;5117534;28;20047;-79
2023/03/25 12:33:27;;;;;;;7.32;3.75;;;13.70;70.70;;;;;;5115832;28;20066;-79
2023/03/25 12:36:15;;;;;;;5.78;3.45;;;13.50;69.90;;;;;;5115957;28;20023;-79
2023/03/25 12:39:16;;;;;;;4.35;2.90;;;13.30;71.30;;;;;;5115980;28;20076;-79
2023/03/25 12:41:45;;;;;;;7.00;3.70;;;13.20;72.10;;;;;;5112337;28;20028;-79
2023/03/25 12:44:26;;;;;;;7.00;3.85;;;13.00;72.20;;;;;;5095367;28;20032;-79
2023/03/25 12:46:57;;;;;;;5.20;4.53;;;12.90;73.20;;;;;;5095309;28;20358;-79
2023/03/25 12:49:31;;;;;;;6.78;4.18;;;12.70;72.00;;;;;;5095321;28;20253;-79
2023/03/25 12:52:14;;;;;;;9.63;4.00;;;12.60;72.70;;;;;;5096622;28;20036;-79
2023/03/25 12:55:03;;;;;;;6.45;4.45;;;12.60;75.20;;;;;;5095588;28;20029;-79
2023/03/25 12:57:38;;;;;;;6.60;4.57;;;12.30;82.90;;;;;;5081604;28;20039;-79